الصفحة الرئيسية
METAR-TAF:

METAR-TAF

مطار :

Pointe-à-Pitre, جوادلوب

دائرة عرض: 16-16N, خط طول: 061-31W, ارتفاع: 11 متر

مراقبة الطقس الحالي

تاريخ ووقت الإصدار 17 دقيقة قبل الساعة 01:00UTC
ريح 7 عقدة من الشرق
درجة الحرارة 27°درجة مئوية
الرطوبة 74%
ضغط 1018 hPa
الرؤية 10 كم أو أكثر
الغيوم لا تقل 1500 م ولا وجود لمزنة ركامية السحاب الأسود

METAR: TFFR 240100Z AUTO 09007KT CAVOK 27/22 Q1018 TEMPO 4000 SHRA BKN015TCU

زمن: 21:17 (01:17 UTC)

توقعات

تاريخ ووقت الإصدار 2ساعات و 17 دقيقة قبل الساعة 23:00UTC
التوقعات صالحة من24 الساعة 00 UTC إلى 24 الساعة 24 UTC
ريح 12 عقدة من الشرق
الرؤية 10 كم أو أكثر
غيوم متفرقة على ارتفاع 2500 قدم
نظرية الاحتمالات 30% :
مؤقت
من 24 الساعة 00 UTC إلى 24 الساعة 06 UTC
الرؤية: 4000 متر
غيوم مفككة على ارتفاع 1500 قدم, مزن ركامية عمودية.
زخات من المطر

TAF: TFFR 232300Z 2400/2424 10012KT 9999 SCT025 PROB30 TEMPO 2400/2406 4000 SHRA BKN015TCU

أرصاد الطقس والتوقعات من أكثر من 4000 مطار (تقارير الطقس للمطار METAR والتنبؤ بالطقس بالمطارTAF).

المحطات المتاحة هي النقط الصفراء والحمراء على الخريطة.

حرك المؤشر فوق النقطة لمعرفة اسم المحطة.

ثم انقر لمعرفة أرصاد وتوقعات الطقس.

لتغيير الخارطة: اضغط على الأزرار الخضراء مع رمز الصليب الأسود للتكبير. على الزر الأخضر مع شرطة للتصغير، أو على الأسهم الخضراء للخرائط المجاورة.


METAR-TAF: